Time,TemperatureF,DewpointF,PressureIn,WindDirection,WindDirectionDegrees,WindSpeedMPH,WindSpeedGustMPH,Humidity,HourlyPrecipIn,Conditions,Clouds,dailyrainin,SoftwareType,DateUTC
2013-09-17 00:00:00,50.2,42.0,30.21,WNW,295,3.4,3.4,73,-99.99,,,-99.99,PWS SA v1.10,2013-09-17 04:00:00,
2013-09-17 00:02:00,50.2,41.9,30.21,North,0,0.0,3.0,73,-99.99,,,-99.99,PWS SA v1.10,2013-09-17 04:02:00,
2013-09-17 00:04:00,50.2,41.7,30.21,North,0,0.0,3.0,73,-99.99,,,-99.99,PWS SA v1.10,2013-09-17 04:04:00,
2013-09-17 00:06:00,50.2,41.9,30.21,North,0,0.0,3.0,73,-99.99,,,-99.99,PWS SA v1.10,2013-09-17 04:06:00,
2013-09-17 00:10:00,50.1,41.5,30.21,North,0,0.0,3.0,72,-99.99,,,-99.99,PWS SA v1.10,2013-09-17 04:10:00,
2013-09-17 00:16:00,50.1,42.0,30.22,North,0,0.0,0.0,73,-99.99,,,-99.99,PWS SA v1.10,2013-09-17 04:16:00,
2013-09-17 00:22:00,50.0,42.1,30.22,North,0,0.0,1.0,74,-99.99,,,-99.99,PWS SA v1.10,2013-09-17 04:22:00,
2013-09-17 00:24:00,50.0,41.7,30.22,North,0,0.0,1.0,73,-99.99,,,-99.99,PWS SA v1.10,2013-09-17 04:24:00,
2013-09-17 00:26:00,50.0,41.6,30.22,South,175,3.4,3.4,73,-99.99,,,-99.99,PWS SA v1.10,2013-09-17 04:26:00,
2013-09-17 00:32:00,50.0,41.8,30.22,North,0,0.0,3.0,73,-99.99,,,-99.99,PWS SA v1.10,2013-09-17 04:32:00,
2013-09-17 00:38:00,49.8,42.1,30.23,North,0,0.0,3.0,74,-99.99,,,-99.99,PWS SA v1.10,2013-09-17 04:38:00,
2013-09-17 00:44:00,49.9,42.1,30.24,North,0,0.0,1.0,74,-99.99,,,-99.99,PWS SA v1.10,2013-09-17 04:44:00,
2013-09-17 00:50:00,49.8,41.7,30.23,North,0,0.0,1.0,74,-99.99,,,-99.99,PWS SA v1.10,2013-09-17 04:50:00,
2013-09-17 00:56:00,49.8,42.3,30.24,North,0,0.0,0.0,75,-99.99,,,-99.99,PWS SA v1.10,2013-09-17 04:56:00,
2013-09-17 01:02:00,49.8,42.3,30.24,North,0,0.0,0.0,75,-99.99,,,-99.99,PWS SA v1.10,2013-09-17 05:02:00,
2013-09-17 01:08:00,49.5,42.1,30.24,North,0,0.0,0.0,75,-99.99,,,-99.99,PWS SA v1.10,2013-09-17 05:08:00,
2013-09-17 01:14:00,49.4,42.3,30.24,North,0,0.0,0.0,76,-99.99,,,-99.99,PWS SA v1.10,2013-09-17 05:14:00,
2013-09-17 01:20:00,49.3,42.6,30.24,North,0,0.0,0.0,77,-99.99,,,-99.99,PWS SA v1.10,2013-09-17 05:20:00,
2013-09-17 01:26:00,49.0,41.4,30.24,North,0,0.0,0.0,74,-99.99,,,-99.99,PWS SA v1.10,2013-09-17 05:26:00,
2013-09-17 01:32:00,49.1,42.1,30.25,North,0,0.0,0.0,77,-99.99,,,-99.99,PWS SA v1.10,2013-09-17 05:32:00,
2013-09-17 01:38:00,48.7,41.3,30.24,North,0,0.0,0.0,75,-99.99,,,-99.99,PWS SA v1.10,2013-09-17 05:38:00,
2013-09-17 01:44:00,48.6,41.8,30.25,North,0,0.0,0.0,76,-99.99,,,-99.99,PWS SA v1.10,2013-09-17 05:44:00,
2013-09-17 01:50:00,48.4,42.1,30.25,North,0,0.0,0.0,78,-99.99,,,-99.99,PWS SA v1.10,2013-09-17 05:50:00,
2013-09-17 01:56:00,48.3,40.9,30.26,North,0,0.0,0.0,76,-99.99,,,-99.99,PWS SA v1.10,2013-09-17 05:56:00,
2013-09-17 02:02:00,48.1,41.1,30.25,North,0,0.0,0.0,76,-99.99,,,-99.99,PWS SA v1.10,2013-09-17 06:02:00,
2013-09-17 02:08:00,48.1,41.0,30.25,North,0,0.0,3.0,76,-99.99,,,-99.99,PWS SA v1.10,2013-09-17 06:08:00,
2013-09-17 02:14:00,48.0,41.0,30.26,North,0,0.0,3.0,76,-99.99,,,-99.99,PWS SA v1.10,2013-09-17 06:14:00,
2013-09-17 02:20:00,48.0,40.8,30.26,North,0,0.0,3.0,76,-99.99,,,-99.99,PWS SA v1.10,2013-09-17 06:20:00,
2013-09-17 02:26:00,48.0,40.2,30.25,North,0,0.0,0.0,75,-99.99,,,-99.99,PWS SA v1.10,2013-09-17 06:26:00,
2013-09-17 02:32:00,47.9,40.8,30.26,North,0,0.0,0.0,76,-99.99,,,-99.99,PWS SA v1.10,2013-09-17 06:32:00,
2013-09-17 02:38:00,47.9,41.2,30.26,North,0,0.0,0.0,77,-99.99,,,-99.99,PWS SA v1.10,2013-09-17 06:38:00,
2013-09-17 02:44:00,47.6,40.9,30.26,North,0,0.0,0.0,77,-99.99,,,-99.99,PWS SA v1.10,2013-09-17 06:44:00,
2013-09-17 02:50:00,47.6,41.2,30.26,North,0,0.0,0.0,78,-99.99,,,-99.99,PWS SA v1.10,2013-09-17 06:50:00,
2013-09-17 02:56:00,47.5,41.0,30.26,North,0,0.0,0.0,77,-99.99,,,-99.99,PWS SA v1.10,2013-09-17 06:56:00,
2013-09-17 03:02:00,47.4,40.8,30.26,NE,39,1.7,1.7,77,-99.99,,,-99.99,PWS SA v1.10,2013-09-17 07:02:00,
2013-09-17 03:08:00,47.2,40.2,30.27,North,0,0.0,1.0,76,-99.99,,,-99.99,PWS SA v1.10,2013-09-17 07:08:00,
2013-09-17 03:14:00,47.1,40.2,30.27,North,0,0.0,1.0,76,-99.99,,,-99.99,PWS SA v1.10,2013-09-17 07:14:00,
2013-09-17 03:20:00,46.9,40.7,30.27,North,0,0.0,0.0,78,-99.99,,,-99.99,PWS SA v1.10,2013-09-17 07:20:00,
2013-09-17 03:26:00,46.7,40.6,30.27,North,0,0.0,0.0,78,-99.99,,,-99.99,PWS SA v1.10,2013-09-17 07:26:00,
2013-09-17 03:32:00,46.7,40.5,30.27,North,0,0.0,0.0,78,-99.99,,,-99.99,PWS SA v1.10,2013-09-17 07:32:00,
2013-09-17 03:38:00,46.6,40.1,30.27,North,0,0.0,0.0,78,-99.99,,,-99.99,PWS SA v1.10,2013-09-17 07:38:00,
2013-09-17 03:44:00,46.2,40.1,30.27,North,0,0.0,0.0,79,-99.99,,,-99.99,PWS SA v1.10,2013-09-17 07:44:00,
2013-09-17 03:50:00,46.2,40.0,30.27,North,0,0.0,0.0,79,-99.99,,,-99.99,PWS SA v1.10,2013-09-17 07:50:00,
2013-09-17 03:56:00,45.9,40.1,30.27,North,0,0.0,0.0,79,-99.99,,,-99.99,PWS SA v1.10,2013-09-17 07:56:00,
2013-09-17 04:02:00,45.8,41.0,30.27,North,0,0.0,0.0,82,-99.99,,,-99.99,PWS SA v1.10,2013-09-17 08:02:00,
2013-09-17 04:08:00,45.5,40.8,30.27,North,0,0.0,0.0,82,-99.99,,,-99.99,PWS SA v1.10,2013-09-17 08:08:00,
2013-09-17 04:14:00,45.3,41.1,30.27,North,0,0.0,0.0,84,-99.99,,,-99.99,PWS SA v1.10,2013-09-17 08:14:00,
2013-09-17 04:20:00,45.1,40.4,30.27,North,0,0.0,0.0,83,-99.99,,,-99.99,PWS SA v1.10,2013-09-17 08:20:00,
2013-09-17 04:26:00,44.6,40.5,30.27,North,0,0.0,0.0,84,-99.99,,,-99.99,PWS SA v1.10,2013-09-17 08:26:00,
2013-09-17 04:32:00,44.5,40.3,30.27,North,0,0.0,0.0,84,-99.99,,,-99.99,PWS SA v1.10,2013-09-17 08:32:00,
2013-09-17 04:40:00,44.1,40.5,30.27,North,0,0.0,0.0,86,-99.99,,,-99.99,PWS SA v1.10,2013-09-17 08:40:00,
2013-09-17 04:46:00,43.9,40.2,30.28,North,0,0.0,0.0,86,-99.99,,,-99.99,PWS SA v1.10,2013-09-17 08:46:00,
2013-09-17 04:52:00,43.6,40.2,30.28,North,0,0.0,0.0,87,-99.99,,,-99.99,PWS SA v1.10,2013-09-17 08:52:00,
2013-09-17 04:58:00,43.5,40.3,30.27,North,0,0.0,0.0,88,-99.99,,,-99.99,PWS SA v1.10,2013-09-17 08:58:00,
2013-09-17 05:04:00,43.4,40.3,30.28,North,0,0.0,0.0,88,-99.99,,,-99.99,PWS SA v1.10,2013-09-17 09:04:00,
2013-09-17 05:10:00,43.2,40.0,30.28,North,0,0.0,0.0,88,-99.99,,,-99.99,PWS SA v1.10,2013-09-17 09:10:00,
2013-09-17 05:16:00,43.3,40.2,30.29,North,0,0.0,0.0,89,-99.99,,,-99.99,PWS SA v1.10,2013-09-17 09:16:00,
2013-09-17 05:22:00,43.3,40.2,30.29,North,0,0.0,0.0,89,-99.99,,,-99.99,PWS SA v1.10,2013-09-17 09:22:00,
2013-09-17 05:28:00,43.3,40.3,30.29,North,0,0.0,0.0,89,-99.99,,,-99.99,PWS SA v1.10,2013-09-17 09:28:00,
2013-09-17 05:34:00,43.2,40.2,30.29,North,0,0.0,0.0,89,-99.99,,,-99.99,PWS SA v1.10,2013-09-17 09:34:00,
2013-09-17 05:40:00,43.2,40.2,30.30,North,0,0.0,0.0,89,-99.99,,,-99.99,PWS SA v1.10,2013-09-17 09:40:00,
2013-09-17 05:46:00,43.2,39.9,30.29,North,0,0.0,0.0,88,-99.99,,,-99.99,PWS SA v1.10,2013-09-17 09:46:00,
2013-09-17 05:52:00,43.2,40.2,30.30,North,0,0.0,0.0,89,-99.99,,,-99.99,PWS SA v1.10,2013-09-17 09:52:00,
2013-09-17 05:58:00,43.1,40.6,30.30,North,0,0.0,0.0,90,-99.99,,,-99.99,PWS SA v1.10,2013-09-17 09:58:00,
2013-09-17 06:04:00,43.0,40.3,30.31,North,0,0.0,0.0,89,-99.99,,,-99.99,PWS SA v1.10,2013-09-17 10:04:00,
2013-09-17 06:10:00,43.0,39.9,30.31,North,0,0.0,0.0,89,-99.99,,,-99.99,PWS SA v1.10,2013-09-17 10:10:00,
2013-09-17 06:16:00,42.9,39.9,30.31,North,0,0.0,0.0,89,-99.99,,,-99.99,PWS SA v1.10,2013-09-17 10:16:00,
2013-09-17 06:22:00,42.9,39.9,30.32,North,0,0.0,0.0,89,-99.99,,,-99.99,PWS SA v1.10,2013-09-17 10:22:00,
2013-09-17 06:28:00,42.8,39.8,30.32,North,0,0.0,0.0,89,-99.99,,,-99.99,PWS SA v1.10,2013-09-17 10:28:00,
2013-09-17 06:34:00,42.7,39.9,30.33,North,0,0.0,0.0,89,-99.99,,,-99.99,PWS SA v1.10,2013-09-17 10:34:00,
2013-09-17 06:40:00,42.8,39.8,30.33,North,0,0.0,0.0,89,-99.99,,,-99.99,PWS SA v1.10,2013-09-17 10:40:00,
2013-09-17 06:46:00,42.9,40.0,30.33,North,0,0.0,0.0,89,-99.99,,,-99.99,PWS SA v1.10,2013-09-17 10:46:00,
2013-09-17 06:52:00,42.9,39.9,30.33,North,0,0.0,0.0,89,-99.99,,,-99.99,PWS SA v1.10,2013-09-17 10:52:00,
2013-09-17 06:58:00,43.0,40.5,30.33,North,0,0.0,0.0,90,-99.99,,,-99.99,PWS SA v1.10,2013-09-17 10:58:00,
2013-09-17 07:04:00,43.0,40.0,30.33,North,0,0.0,0.0,89,-99.99,,,-99.99,PWS SA v1.10,2013-09-17 11:04:00,
2013-09-17 07:10:00,42.9,39.9,30.33,North,0,0.0,0.0,89,-99.99,,,-99.99,PWS SA v1.10,2013-09-17 11:10:00,
2013-09-17 07:16:00,43.0,40.5,30.34,North,0,0.0,0.0,91,-99.99,,,-99.99,PWS SA v1.10,2013-09-17 11:16:00,
2013-09-17 07:22:00,43.2,40.3,30.34,North,0,0.0,0.0,90,-99.99,,,-99.99,PWS SA v1.10,2013-09-17 11:22:00,
2013-09-17 07:28:00,43.4,40.5,30.34,North,0,0.0,0.0,90,-99.99,,,-99.99,PWS SA v1.10,2013-09-17 11:28:00,
2013-09-17 07:34:00,43.8,40.8,30.34,North,0,0.0,0.0,89,-99.99,,,-99.99,PWS SA v1.10,2013-09-17 11:34:00,
2013-09-17 07:40:00,44.1,41.2,30.35,North,0,0.0,1.0,90,-99.99,,,-99.99,PWS SA v1.10,2013-09-17 11:40:00,
2013-09-17 07:46:00,44.5,40.9,30.35,North,0,0.0,1.0,87,-99.99,,,-99.99,PWS SA v1.10,2013-09-17 11:46:00,
2013-09-17 07:52:00,44.7,40.5,30.34,North,0,0.0,1.0,85,-99.99,,,-99.99,PWS SA v1.10,2013-09-17 11:52:00,
2013-09-17 07:58:00,44.9,40.7,30.35,North,0,0.0,0.0,85,-99.99,,,-99.99,PWS SA v1.10,2013-09-17 11:58:00,
2013-09-17 08:04:00,45.3,41.3,30.35,North,0,0.0,0.0,86,-99.99,,,-99.99,PWS SA v1.10,2013-09-17 12:04:00,
2013-09-17 08:10:00,45.5,41.4,30.36,North,0,0.0,0.0,85,-99.99,,,-99.99,PWS SA v1.10,2013-09-17 12:10:00,
2013-09-17 08:16:00,45.8,41.7,30.35,North,0,0.0,1.0,85,-99.99,,,-99.99,PWS SA v1.10,2013-09-17 12:16:00,
2013-09-17 08:22:00,46.4,41.9,30.36,North,0,0.0,3.0,85,-99.99,,,-99.99,PWS SA v1.10,2013-09-17 12:22:00,
2013-09-17 08:28:00,46.9,41.7,30.36,North,0,0.0,3.0,83,-99.99,,,-99.99,PWS SA v1.10,2013-09-17 12:28:00,
2013-09-17 08:34:00,47.3,41.4,30.36,North,0,0.0,1.0,81,-99.99,,,-99.99,PWS SA v1.10,2013-09-17 12:34:00,
2013-09-17 08:40:00,47.6,41.7,30.36,North,0,0.0,3.0,80,-99.99,,,-99.99,PWS SA v1.10,2013-09-17 12:40:00,
2013-09-17 08:46:00,48.0,41.7,30.36,North,0,0.0,3.0,80,-99.99,,,-99.99,PWS SA v1.10,2013-09-17 12:46:00,
2013-09-17 08:52:00,48.3,42.2,30.37,North,0,0.0,1.0,80,-99.99,,,-99.99,PWS SA v1.10,2013-09-17 12:52:00,
2013-09-17 08:58:00,48.5,42.1,30.37,North,0,0.0,1.0,79,-99.99,,,-99.99,PWS SA v1.10,2013-09-17 12:58:00,
2013-09-17 09:04:00,49.0,41.2,30.37,South,185,1.7,5.0,75,-99.99,,,-99.99,PWS SA v1.10,2013-09-17 13:04:00,
2013-09-17 09:10:00,49.3,41.0,30.37,ENE,58,1.7,6.0,74,-99.99,,,-99.99,PWS SA v1.10,2013-09-17 13:10:00,
2013-09-17 09:16:00,49.7,41.4,30.37,ENE,60,6.8,6.8,74,-99.99,,,-99.99,PWS SA v1.10,2013-09-17 13:16:00,
2013-09-17 09:22:00,50.1,41.6,30.37,East,83,5.1,6.0,72,-99.99,,,-99.99,PWS SA v1.10,2013-09-17 13:22:00,
2013-09-17 09:28:00,50.5,41.1,30.38,North,0,0.0,6.0,70,-99.99,,,-99.99,PWS SA v1.10,2013-09-17 13:28:00,
2013-09-17 09:34:00,50.7,41.6,30.37,NNE,12,1.7,5.0,72,-99.99,,,-99.99,PWS SA v1.10,2013-09-17 13:34:00,
2013-09-17 09:40:00,50.9,41.4,30.38,NE,40,3.4,5.0,70,-99.99,,,-99.99,PWS SA v1.10,2013-09-17 13:40:00,
2013-09-17 09:46:00,51.2,41.0,30.38,North,0,0.0,5.0,68,-99.99,,,-99.99,PWS SA v1.10,2013-09-17 13:46:00,
2013-09-17 09:52:00,51.2,39.8,30.38,North,0,0.0,5.0,65,-99.99,,,-99.99,PWS SA v1.10,2013-09-17 13:52:00,
2013-09-17 09:58:00,51.5,41.2,30.39,SE,133,1.7,3.0,68,-99.99,,,-99.99,PWS SA v1.10,2013-09-17 13:58:00,
2013-09-17 10:04:00,51.8,41.2,30.38,North,0,0.0,3.0,68,-99.99,,,-99.99,PWS SA v1.10,2013-09-17 14:04:00,
2013-09-17 10:10:00,52.0,40.5,30.38,North,0,0.0,5.0,65,-99.99,,,-99.99,PWS SA v1.10,2013-09-17 14:10:00,
2013-09-17 10:16:00,52.4,41.3,30.38,North,0,0.0,5.0,66,-99.99,,,-99.99,PWS SA v1.10,2013-09-17 14:16:00,
2013-09-17 10:22:00,52.8,40.6,30.38,North,0,0.0,3.0,64,-99.99,,,-99.99,PWS SA v1.10,2013-09-17 14:22:00,
2013-09-17 10:28:00,53.2,40.9,30.38,North,0,0.0,3.0,63,-99.99,,,-99.99,PWS SA v1.10,2013-09-17 14:28:00,
2013-09-17 10:34:00,53.5,40.7,30.38,North,0,0.0,3.0,62,-99.99,,,-99.99,PWS SA v1.10,2013-09-17 14:34:00,
2013-09-17 10:40:00,53.5,41.9,30.38,East,99,1.7,3.0,64,-99.99,,,-99.99,PWS SA v1.10,2013-09-17 14:40:00,
2013-09-17 10:46:00,53.9,42.1,30.38,North,0,0.0,3.0,64,-99.99,,,-99.99,PWS SA v1.10,2013-09-17 14:46:00,
2013-09-17 10:52:00,54.2,41.6,30.38,North,0,0.0,6.0,62,-99.99,,,-99.99,PWS SA v1.10,2013-09-17 14:52:00,
2013-09-17 10:58:00,54.7,40.4,30.38,North,0,0.0,6.0,59,-99.99,,,-99.99,PWS SA v1.10,2013-09-17 14:58:00,
2013-09-17 11:04:00,54.8,40.0,30.38,North,0,0.0,1.0,58,-99.99,,,-99.99,PWS SA v1.10,2013-09-17 15:04:00,
2013-09-17 11:10:00,55.1,40.5,30.38,North,0,0.0,1.0,58,-99.99,,,-99.99,PWS SA v1.10,2013-09-17 15:10:00,
2013-09-17 11:16:00,55.4,40.9,30.38,NE,50,1.7,3.0,59,-99.99,,,-99.99,PWS SA v1.10,2013-09-17 15:16:00,
2013-09-17 11:22:00,55.6,41.5,30.38,North,0,0.0,3.0,60,-99.99,,,-99.99,PWS SA v1.10,2013-09-17 15:22:00,
2013-09-17 11:28:00,56.3,42.6,30.38,SE,131,1.7,3.0,60,-99.99,,,-99.99,PWS SA v1.10,2013-09-17 15:28:00,
2013-09-17 11:34:00,56.4,40.7,30.37,North,0,0.0,3.0,56,-99.99,,,-99.99,PWS SA v1.10,2013-09-17 15:34:00,
2013-09-17 11:40:00,56.8,41.0,30.37,ESE,104,3.4,3.4,56,-99.99,,,-99.99,PWS SA v1.10,2013-09-17 15:40:00,
2013-09-17 11:46:00,56.9,40.9,30.37,North,0,0.0,6.0,56,-99.99,,,-99.99,PWS SA v1.10,2013-09-17 15:46:00,
2013-09-17 11:52:00,57.4,40.8,30.37,North,0,0.0,6.0,54,-99.99,,,-99.99,PWS SA v1.10,2013-09-17 15:52:00,
2013-09-17 11:58:00,57.6,41.6,30.37,North,0,0.0,6.0,55,-99.99,,,-99.99,PWS SA v1.10,2013-09-17 15:58:00,
2013-09-17 12:04:00,58.1,41.3,30.37,North,0,0.0,5.0,53,-99.99,,,-99.99,PWS SA v1.10,2013-09-17 16:04:00,
2013-09-17 12:10:00,58.3,41.0,30.37,North,0,0.0,5.0,53,-99.99,,,-99.99,PWS SA v1.10,2013-09-17 16:10:00,
2013-09-17 12:16:00,58.6,43.3,30.37,North,0,0.0,1.0,57,-99.99,,,-99.99,PWS SA v1.10,2013-09-17 16:16:00,
2013-09-17 12:22:00,59.1,40.1,30.37,North,0,0.0,3.0,50,-99.99,,,-99.99,PWS SA v1.10,2013-09-17 16:22:00,
2013-09-17 12:28:00,59.5,43.3,30.37,East,95,1.7,3.0,55,-99.99,,,-99.99,PWS SA v1.10,2013-09-17 16:28:00,
2013-09-17 12:34:00,59.6,43.1,30.37,North,0,0.0,1.0,54,-99.99,,,-99.99,PWS SA v1.10,2013-09-17 16:34:00,
2013-09-17 12:40:00,59.7,42.7,30.37,East,93,1.7,6.0,54,-99.99,,,-99.99,PWS SA v1.10,2013-09-17 16:40:00,
2013-09-17 12:46:00,60.0,41.4,30.36,NNE,31,3.4,6.0,50,-99.99,,,-99.99,PWS SA v1.10,2013-09-17 16:46:00,
2013-09-17 12:52:00,60.2,41.5,30.36,North,0,0.0,6.0,51,-99.99,,,-99.99,PWS SA v1.10,2013-09-17 16:52:00,
2013-09-17 12:58:00,60.5,45.1,30.36,North,0,0.0,6.0,57,-99.99,,,-99.99,PWS SA v1.10,2013-09-17 16:58:00,
2013-09-17 13:04:00,60.8,42.1,30.36,North,0,0.0,3.0,51,-99.99,,,-99.99,PWS SA v1.10,2013-09-17 17:04:00,
2013-09-17 13:10:00,60.9,42.4,30.36,NNE,17,5.1,5.1,51,-99.99,,,-99.99,PWS SA v1.10,2013-09-17 17:10:00,
2013-09-17 13:16:00,60.8,41.2,30.36,North,0,0.0,5.0,49,-99.99,,,-99.99,PWS SA v1.10,2013-09-17 17:16:00,
2013-09-17 13:22:00,61.3,42.1,30.36,ENE,78,3.4,5.0,49,-99.99,,,-99.99,PWS SA v1.10,2013-09-17 17:22:00,
2013-09-17 13:28:00,61.3,44.0,30.36,North,0,0.0,3.0,54,-99.99,,,-99.99,PWS SA v1.10,2013-09-17 17:28:00,
2013-09-17 13:34:00,61.4,42.6,30.36,North,0,0.0,3.0,51,-99.99,,,-99.99,PWS SA v1.10,2013-09-17 17:34:00,
2013-09-17 13:40:00,61.6,41.6,30.35,North,0,0.0,1.0,49,-99.99,,,-99.99,PWS SA v1.10,2013-09-17 17:40:00,
2013-09-17 13:46:00,61.2,40.8,30.35,North,0,0.0,1.0,47,-99.99,,,-99.99,PWS SA v1.10,2013-09-17 17:46:00,
2013-09-17 13:52:00,61.0,42.7,30.34,North,353,1.7,3.0,51,-99.99,,,-99.99,PWS SA v1.10,2013-09-17 17:52:00,
2013-09-17 13:58:00,61.1,42.0,30.34,North,0,0.0,3.0,50,-99.99,,,-99.99,PWS SA v1.10,2013-09-17 17:58:00,
2013-09-17 14:04:00,61.5,42.7,30.34,North,0,0.0,1.0,51,-99.99,,,-99.99,PWS SA v1.10,2013-09-17 18:04:00,
2013-09-17 14:10:00,61.5,42.0,30.34,North,0,0.0,0.0,49,-99.99,,,-99.99,PWS SA v1.10,2013-09-17 18:10:00,
2013-09-17 14:16:00,61.7,43.8,30.34,North,0,0.0,0.0,52,-99.99,,,-99.99,PWS SA v1.10,2013-09-17 18:16:00,
2013-09-17 14:22:00,61.8,44.0,30.33,ENE,63,3.4,5.0,53,-99.99,,,-99.99,PWS SA v1.10,2013-09-17 18:22:00,
2013-09-17 14:28:00,62.1,42.7,30.33,North,0,0.0,5.0,50,-99.99,,,-99.99,PWS SA v1.10,2013-09-17 18:28:00,
2013-09-17 14:34:00,62.2,42.3,30.33,North,0,0.0,3.0,49,-99.99,,,-99.99,PWS SA v1.10,2013-09-17 18:34:00,
2013-09-17 14:40:00,62.2,42.0,30.32,North,356,5.1,5.1,48,-99.99,,,-99.99,PWS SA v1.10,2013-09-17 18:40:00,
2013-09-17 14:46:00,62.0,40.9,30.32,North,0,0.0,5.0,46,-99.99,,,-99.99,PWS SA v1.10,2013-09-17 18:46:00,
2013-09-17 14:52:00,61.8,42.8,30.32,ESE,114,5.1,5.1,50,-99.99,,,-99.99,PWS SA v1.10,2013-09-17 18:52:00,
2013-09-17 14:58:00,62.0,43.9,30.32,ENE,73,1.7,5.0,52,-99.99,,,-99.99,PWS SA v1.10,2013-09-17 18:58:00,
2013-09-17 15:04:00,61.8,44.4,30.31,North,0,0.0,5.0,53,-99.99,,,-99.99,PWS SA v1.10,2013-09-17 19:04:00,
2013-09-17 15:10:00,62.2,43.0,30.32,ENE,69,5.1,5.1,50,-99.99,,,-99.99,PWS SA v1.10,2013-09-17 19:10:00,
2013-09-17 15:16:00,62.9,46.4,30.32,North,0,0.0,5.0,56,-99.99,,,-99.99,PWS SA v1.10,2013-09-17 19:16:00,
2013-09-17 15:22:00,63.3,44.3,30.31,WSW,240,1.7,5.0,51,-99.99,,,-99.99,PWS SA v1.10,2013-09-17 19:22:00,
2013-09-17 15:28:00,63.9,41.4,30.31,North,0,0.0,3.0,44,-99.99,,,-99.99,PWS SA v1.10,2013-09-17 19:28:00,
2013-09-17 15:34:00,65.0,43.2,30.31,North,0,0.0,3.0,47,-99.99,,,-99.99,PWS SA v1.10,2013-09-17 19:34:00,
2013-09-17 15:40:00,65.6,45.2,30.30,North,0,0.0,0.0,49,-99.99,,,-99.99,PWS SA v1.10,2013-09-17 19:40:00,
2013-09-17 15:46:00,65.7,45.6,30.31,SSW,206,3.4,3.4,49,-99.99,,,-99.99,PWS SA v1.10,2013-09-17 19:46:00,
2013-09-17 15:52:00,64.5,45.9,30.30,North,0,0.0,3.0,51,-99.99,,,-99.99,PWS SA v1.10,2013-09-17 19:52:00,
2013-09-17 15:58:00,65.1,43.6,30.31,North,0,0.0,3.0,47,-99.99,,,-99.99,PWS SA v1.10,2013-09-17 19:58:00,
2013-09-17 16:04:00,64.7,44.8,30.31,North,0,0.0,3.0,49,-99.99,,,-99.99,PWS SA v1.10,2013-09-17 20:04:00,
2013-09-17 16:10:00,64.8,46.3,30.30,North,0,0.0,0.0,52,-99.99,,,-99.99,PWS SA v1.10,2013-09-17 20:10:00,
2013-09-17 16:16:00,63.8,44.1,30.30,North,0,0.0,0.0,50,-99.99,,,-99.99,PWS SA v1.10,2013-09-17 20:16:00,
2013-09-17 16:22:00,62.9,44.7,30.30,NNE,18,1.7,1.7,52,-99.99,,,-99.99,PWS SA v1.10,2013-09-17 20:22:00,
2013-09-17 16:28:00,62.9,44.2,30.30,North,0,0.0,1.0,52,-99.99,,,-99.99,PWS SA v1.10,2013-09-17 20:28:00,
2013-09-17 16:34:00,61.9,44.7,30.31,North,0,0.0,1.0,54,-99.99,,,-99.99,PWS SA v1.10,2013-09-17 20:34:00,
2013-09-17 16:40:00,62.0,44.3,30.30,North,0,0.0,0.0,54,-99.99,,,-99.99,PWS SA v1.10,2013-09-17 20:40:00,
2013-09-17 16:46:00,61.4,43.4,30.30,North,0,0.0,0.0,52,-99.99,,,-99.99,PWS SA v1.10,2013-09-17 20:46:00,
2013-09-17 16:52:00,61.2,44.1,30.30,North,0,0.0,1.0,54,-99.99,,,-99.99,PWS SA v1.10,2013-09-17 20:52:00,
2013-09-17 16:58:00,61.0,45.1,30.30,North,0,0.0,1.0,57,-99.99,,,-99.99,PWS SA v1.10,2013-09-17 20:58:00,
2013-09-17 17:04:00,61.2,45.8,30.29,North,0,0.0,3.0,58,-99.99,,,-99.99,PWS SA v1.10,2013-09-17 21:04:00,
2013-09-17 17:10:00,61.0,44.5,30.29,North,0,0.0,3.0,56,-99.99,,,-99.99,PWS SA v1.10,2013-09-17 21:10:00,
2013-09-17 17:16:00,60.9,46.3,30.29,North,0,0.0,3.0,60,-99.99,,,-99.99,PWS SA v1.10,2013-09-17 21:16:00,
2013-09-17 17:22:00,61.1,45.6,30.29,North,0,0.0,0.0,58,-99.99,,,-99.99,PWS SA v1.10,2013-09-17 21:22:00,
2013-09-17 17:28:00,60.9,47.5,30.29,North,0,0.0,0.0,63,-99.99,,,-99.99,PWS SA v1.10,2013-09-17 21:28:00,
2013-09-17 17:34:00,60.5,45.1,30.29,North,0,0.0,0.0,58,-99.99,,,-99.99,PWS SA v1.10,2013-09-17 21:34:00,
2013-09-17 17:40:00,60.3,45.9,30.28,North,0,0.0,0.0,60,-99.99,,,-99.99,PWS SA v1.10,2013-09-17 21:40:00,
2013-09-17 17:46:00,59.9,45.0,30.28,North,0,0.0,0.0,59,-99.99,,,-99.99,PWS SA v1.10,2013-09-17 21:46:00,
2013-09-17 17:52:00,59.7,46.7,30.28,North,0,0.0,0.0,63,-99.99,,,-99.99,PWS SA v1.10,2013-09-17 21:52:00,
2013-09-17 17:58:00,59.6,45.8,30.29,North,0,0.0,0.0,61,-99.99,,,-99.99,PWS SA v1.10,2013-09-17 21:58:00,
2013-09-17 18:04:00,59.2,45.5,30.29,North,0,0.0,0.0,61,-99.99,,,-99.99,PWS SA v1.10,2013-09-17 22:04:00,
2013-09-17 18:10:00,59.0,46.7,30.29,North,0,0.0,0.0,65,-99.99,,,-99.99,PWS SA v1.10,2013-09-17 22:10:00,
2013-09-17 18:16:00,58.7,47.0,30.28,North,0,0.0,0.0,67,-99.99,,,-99.99,PWS SA v1.10,2013-09-17 22:16:00,
2013-09-17 18:22:00,58.0,47.0,30.29,North,0,0.0,0.0,68,-99.99,,,-99.99,PWS SA v1.10,2013-09-17 22:22:00,
2013-09-17 18:28:00,57.7,47.7,30.28,North,0,0.0,0.0,71,-99.99,,,-99.99,PWS SA v1.10,2013-09-17 22:28:00,
2013-09-17 18:34:00,57.4,47.6,30.28,North,0,0.0,0.0,71,-99.99,,,-99.99,PWS SA v1.10,2013-09-17 22:34:00,
2013-09-17 18:40:00,56.7,47.0,30.29,North,0,0.0,0.0,70,-99.99,,,-99.99,PWS SA v1.10,2013-09-17 22:40:00,
2013-09-17 18:46:00,55.9,47.2,30.28,North,0,0.0,0.0,73,-99.99,,,-99.99,PWS SA v1.10,2013-09-17 22:46:00,
2013-09-17 18:52:00,55.6,47.8,30.29,North,0,0.0,0.0,76,-99.99,,,-99.99,PWS SA v1.10,2013-09-17 22:52:00,
2013-09-17 18:58:00,55.4,47.7,30.28,North,0,0.0,0.0,76,-99.99,,,-99.99,PWS SA v1.10,2013-09-17 22:58:00,
2013-09-17 19:04:00,55.0,47.7,30.28,North,0,0.0,0.0,78,-99.99,,,-99.99,PWS SA v1.10,2013-09-17 23:04:00,
2013-09-17 19:10:00,54.6,48.0,30.28,North,0,0.0,0.0,79,-99.99,,,-99.99,PWS SA v1.10,2013-09-17 23:10:00,
2013-09-17 19:16:00,54.5,48.0,30.28,North,0,0.0,0.0,80,-99.99,,,-99.99,PWS SA v1.10,2013-09-17 23:16:00,
2013-09-17 19:22:00,54.3,47.5,30.28,North,0,0.0,0.0,79,-99.99,,,-99.99,PWS SA v1.10,2013-09-17 23:22:00,
2013-09-17 19:28:00,54.1,47.6,30.28,North,0,0.0,0.0,79,-99.99,,,-99.99,PWS SA v1.10,2013-09-17 23:28:00,
2013-09-17 19:34:00,53.9,48.0,30.28,North,0,0.0,0.0,81,-99.99,,,-99.99,PWS SA v1.10,2013-09-17 23:34:00,
2013-09-17 19:40:00,53.5,47.4,30.29,North,0,0.0,0.0,80,-99.99,,,-99.99,PWS SA v1.10,2013-09-17 23:40:00,
2013-09-17 19:46:00,53.4,47.4,30.28,North,0,0.0,0.0,80,-99.99,,,-99.99,PWS SA v1.10,2013-09-17 23:46:00,
2013-09-17 19:52:00,52.9,47.9,30.29,North,0,0.0,0.0,82,-99.99,,,-99.99,PWS SA v1.10,2013-09-17 23:52:00,
2013-09-17 19:58:00,52.6,47.3,30.29,North,0,0.0,0.0,83,-99.99,,,-99.99,PWS SA v1.10,2013-09-17 23:58:00,
2013-09-17 20:04:00,52.4,47.1,30.29,North,0,0.0,0.0,83,-99.99,,,-99.99,PWS SA v1.10,2013-09-18 00:04:00,
2013-09-17 20:10:00,52.1,47.1,30.29,North,0,0.0,0.0,84,-99.99,,,-99.99,PWS SA v1.10,2013-09-18 00:10:00,
2013-09-17 20:16:00,51.8,47.4,30.29,North,0,0.0,0.0,85,-99.99,,,-99.99,PWS SA v1.10,2013-09-18 00:16:00,
2013-09-17 20:22:00,51.6,47.4,30.29,North,0,0.0,0.0,86,-99.99,,,-99.99,PWS SA v1.10,2013-09-18 00:22:00,
2013-09-17 20:28:00,51.2,47.2,30.29,North,0,0.0,0.0,86,-99.99,,,-99.99,PWS SA v1.10,2013-09-18 00:28:00,
2013-09-17 20:34:00,51.1,47.2,30.29,North,0,0.0,0.0,86,-99.99,,,-99.99,PWS SA v1.10,2013-09-18 00:34:00,
2013-09-17 20:40:00,51.0,47.3,30.29,North,0,0.0,0.0,88,-99.99,,,-99.99,PWS SA v1.10,2013-09-18 00:40:00,
2013-09-17 20:46:00,50.7,47.4,30.29,North,0,0.0,0.0,88,-99.99,,,-99.99,PWS SA v1.10,2013-09-18 00:46:00,
2013-09-17 20:52:00,50.6,47.5,30.29,North,0,0.0,0.0,89,-99.99,,,-99.99,PWS SA v1.10,2013-09-18 00:52:00,
2013-09-17 20:58:00,50.6,47.7,30.30,North,0,0.0,0.0,90,-99.99,,,-99.99,PWS SA v1.10,2013-09-18 00:58:00,
2013-09-17 21:04:00,50.4,47.6,30.29,North,0,0.0,0.0,89,-99.99,,,-99.99,PWS SA v1.10,2013-09-18 01:04:00,
2013-09-17 21:10:00,50.5,47.8,30.29,North,0,0.0,0.0,90,-99.99,,,-99.99,PWS SA v1.10,2013-09-18 01:10:00,
2013-09-17 21:16:00,50.5,48.0,30.29,North,0,0.0,0.0,91,-99.99,,,-99.99,PWS SA v1.10,2013-09-18 01:16:00,
2013-09-17 21:22:00,50.6,48.1,30.29,North,0,0.0,0.0,92,-99.99,,,-99.99,PWS SA v1.10,2013-09-18 01:22:00,
2013-09-17 21:28:00,50.4,48.1,30.29,North,0,0.0,0.0,92,-99.99,,,-99.99,PWS SA v1.10,2013-09-18 01:28:00,
2013-09-17 21:34:00,50.4,48.2,30.29,North,0,0.0,0.0,92,-99.99,,,-99.99,PWS SA v1.10,2013-09-18 01:34:00,
2013-09-17 21:40:00,50.4,48.1,30.29,North,0,0.0,0.0,92,-99.99,,,-99.99,PWS SA v1.10,2013-09-18 01:40:00,
2013-09-17 21:46:00,50.2,48.0,30.29,North,0,0.0,0.0,92,-99.99,,,-99.99,PWS SA v1.10,2013-09-18 01:46:00,
2013-09-17 21:52:00,50.1,47.9,30.29,North,0,0.0,0.0,92,-99.99,,,-99.99,PWS SA v1.10,2013-09-18 01:52:00,
2013-09-17 21:58:00,49.6,47.4,30.29,North,0,0.0,0.0,93,-99.99,,,-99.99,PWS SA v1.10,2013-09-18 01:58:00,
2013-09-17 22:04:00,49.3,47.5,30.29,North,0,0.0,0.0,93,-99.99,,,-99.99,PWS SA v1.10,2013-09-18 02:04:00,
2013-09-17 22:10:00,49.2,47.7,30.29,North,0,0.0,0.0,94,-99.99,,,-99.99,PWS SA v1.10,2013-09-18 02:10:00,
2013-09-17 22:16:00,49.0,47.6,30.29,North,0,0.0,0.0,94,-99.99,,,-99.99,PWS SA v1.10,2013-09-18 02:16:00,
2013-09-17 22:22:00,48.8,47.6,30.29,North,0,0.0,0.0,96,-99.99,,,-99.99,PWS SA v1.10,2013-09-18 02:22:00,
2013-09-17 22:28:00,48.8,47.6,30.30,North,0,0.0,0.0,96,-99.99,,,-99.99,PWS SA v1.10,2013-09-18 02:28:00,
2013-09-17 22:34:00,48.7,47.4,30.30,North,0,0.0,0.0,96,-99.99,,,-99.99,PWS SA v1.10,2013-09-18 02:34:00,
2013-09-17 22:40:00,48.7,47.3,30.30,North,0,0.0,0.0,95,-99.99,,,-99.99,PWS SA v1.10,2013-09-18 02:40:00,
2013-09-17 22:46:00,49.0,47.8,30.29,North,0,0.0,0.0,96,-99.99,,,-99.99,PWS SA v1.10,2013-09-18 02:46:00,
2013-09-17 22:52:00,49.3,48.1,30.30,North,0,0.0,0.0,96,-99.99,,,-99.99,PWS SA v1.10,2013-09-18 02:52:00,
2013-09-17 22:58:00,49.3,47.9,30.29,North,0,0.0,0.0,95,-99.99,,,-99.99,PWS SA v1.10,2013-09-18 02:58:00,
2013-09-17 23:04:00,49.3,47.7,30.30,North,0,0.0,0.0,94,-99.99,,,-99.99,PWS SA v1.10,2013-09-18 03:04:00,
2013-09-17 23:10:00,49.4,48.0,30.30,North,0,0.0,0.0,94,-99.99,,,-99.99,PWS SA v1.10,2013-09-18 03:10:00,
2013-09-17 23:16:00,49.3,47.6,30.30,North,0,0.0,0.0,94,-99.99,,,-99.99,PWS SA v1.10,2013-09-18 03:16:00,
2013-09-17 23:24:00,49.3,47.6,30.29,North,0,0.0,0.0,93,-99.99,,,-99.99,PWS SA v1.10,2013-09-18 03:24:00,
2013-09-17 23:30:00,49.2,47.5,30.29,North,0,0.0,0.0,93,-99.99,,,-99.99,PWS SA v1.10,2013-09-18 03:30:00,
2013-09-17 23:36:00,49.0,47.2,30.29,North,0,0.0,0.0,93,-99.99,,,-99.99,PWS SA v1.10,2013-09-18 03:36:00,
2013-09-17 23:42:00,49.0,47.3,30.29,North,0,0.0,0.0,93,-99.99,,,-99.99,PWS SA v1.10,2013-09-18 03:42:00,
2013-09-17 23:48:00,48.8,47.2,30.29,North,0,0.0,0.0,93,-99.99,,,-99.99,PWS SA v1.10,2013-09-18 03:48:00,
2013-09-17 23:54:00,48.6,46.9,30.29,North,0,0.0,0.0,93,-99.99,,,-99.99,PWS SA v1.10,2013-09-18 03:54:00,